sensor_id;sensor_type;location;lat;lon;timestamp;P1;durP1;ratioP1;P2;durP2;ratioP2
56477;SDS011;42382;53.210;5.772;2023-03-11T04:41:01;1.60;;;0.10;;
56477;SDS011;42382;53.210;5.772;2023-03-11T04:43:28;4.57;;;0.10;;
56477;SDS011;42382;53.210;5.772;2023-03-11T04:45:54;2.30;;;0.10;;
56477;SDS011;42382;53.210;5.772;2023-03-11T04:48:19;1.60;;;0.20;;
56477;SDS011;42382;53.210;5.772;2023-03-11T04:50:47;2.20;;;0.10;;
56477;SDS011;42382;53.210;5.772;2023-03-11T04:53:13;1.45;;;0.20;;
56477;SDS011;42382;53.210;5.772;2023-03-11T04:55:39;2.35;;;0.17;;
56477;SDS011;42382;53.210;5.772;2023-03-11T04:58:08;2.25;;;0.10;;
56477;SDS011;42382;53.210;5.772;2023-03-11T05:00:34;3.35;;;0.20;;
56477;SDS011;42382;53.210;5.772;2023-03-11T05:02:59;0.93;;;0.25;;
56477;SDS011;42382;53.210;5.772;2023-03-11T05:05:25;1.38;;;0.40;;
56477;SDS011;42382;53.210;5.772;2023-03-11T05:07:51;1.58;;;0.30;;
56477;SDS011;42382;53.210;5.772;2023-03-11T05:10:16;3.47;;;0.10;;
56477;SDS011;42382;53.210;5.772;2023-03-11T05:12:50;2.35;;;0.10;;
56477;SDS011;42382;53.210;5.772;2023-03-11T05:15:17;2.47;;;0.30;;
56477;SDS011;42382;53.210;5.772;2023-03-11T05:17:43;10.80;;;0.30;;
56477;SDS011;42382;53.210;5.772;2023-03-11T05:20:09;2.58;;;0.17;;
56477;SDS011;42382;53.210;5.772;2023-03-11T05:22:35;1.95;;;0.20;;
56477;SDS011;42382;53.210;5.772;2023-03-11T05:25:01;5.68;;;0.20;;
56477;SDS011;42382;53.210;5.772;2023-03-11T05:27:27;6.10;;;0.40;;
56477;SDS011;42382;53.210;5.772;2023-03-11T05:29:53;1.60;;;0.10;;
56477;SDS011;42382;53.210;5.772;2023-03-11T05:32:18;2.42;;;0.20;;
56477;SDS011;42382;53.210;5.772;2023-03-11T05:34:44;5.13;;;0.20;;
56477;SDS011;42382;53.210;5.772;2023-03-11T05:37:10;3.65;;;0.40;;
56477;SDS011;42382;53.210;5.772;2023-03-11T05:39:36;1.40;;;0.10;;
56477;SDS011;42382;53.210;5.772;2023-03-11T05:42:02;6.30;;;0.20;;
56477;SDS011;42382;53.210;5.772;2023-03-11T05:44:29;4.78;;;0.20;;
56477;SDS011;42382;53.210;5.772;2023-03-11T05:46:55;2.83;;;0.20;;
56477;SDS011;42382;53.210;5.772;2023-03-11T05:49:20;1.90;;;0.10;;
56477;SDS011;42382;53.210;5.772;2023-03-11T05:51:46;2.55;;;0.10;;
56477;SDS011;42382;53.210;5.772;2023-03-11T05:54:12;2.03;;;0.20;;
56477;SDS011;42382;53.210;5.772;2023-03-11T05:56:41;2.47;;;0.10;;
56477;SDS011;42382;53.210;5.772;2023-03-11T05:59:11;1.58;;;0.30;;
56477;SDS011;42382;53.210;5.772;2023-03-11T06:01:39;1.40;;;0.10;;
56477;SDS011;42382;53.210;5.772;2023-03-11T06:04:05;2.55;;;0.13;;
56477;SDS011;42382;53.210;5.772;2023-03-11T06:06:31;3.47;;;0.63;;
56477;SDS011;42382;53.210;5.772;2023-03-11T06:08:57;0.90;;;0.13;;
56477;SDS011;42382;53.210;5.772;2023-03-11T06:11:23;3.42;;;0.30;;
56477;SDS011;42382;53.210;5.772;2023-03-11T06:13:52;4.72;;;0.32;;
56477;SDS011;42382;53.210;5.772;2023-03-11T06:16:19;3.30;;;0.20;;
56477;SDS011;42382;53.210;5.772;2023-03-11T06:18:45;5.53;;;0.30;;
56477;SDS011;42382;53.210;5.772;2023-03-11T06:21:29;3.75;;;0.30;;
56477;SDS011;42382;53.210;5.772;2023-03-11T06:23:55;1.95;;;0.75;;
56477;SDS011;42382;53.210;5.772;2023-03-11T06:26:21;5.45;;;0.20;;
56477;SDS011;42382;53.210;5.772;2023-03-11T06:28:48;7.55;;;0.30;;
56477;SDS011;42382;53.210;5.772;2023-03-11T06:31:16;3.90;;;0.30;;
56477;SDS011;42382;53.210;5.772;2023-03-11T06:33:48;5.78;;;0.45;;
56477;SDS011;42382;53.210;5.772;2023-03-11T06:36:15;5.38;;;0.20;;
56477;SDS011;42382;53.210;5.772;2023-03-11T06:38:42;3.38;;;0.40;;
56477;SDS011;42382;53.210;5.772;2023-03-11T06:41:07;4.53;;;0.75;;
56477;SDS011;42382;53.210;5.772;2023-03-11T06:43:34;3.95;;;0.30;;
56477;SDS011;42382;53.210;5.772;2023-03-11T06:46:00;3.75;;;0.68;;
56477;SDS011;42382;53.210;5.772;2023-03-11T06:48:27;3.33;;;1.00;;
56477;SDS011;42382;53.210;5.772;2023-03-11T06:50:56;2.22;;;0.30;;
56477;SDS011;42382;53.210;5.772;2023-03-11T06:53:23;5.72;;;0.30;;
56477;SDS011;42382;53.210;5.772;2023-03-11T06:55:59;7.03;;;0.90;;
56477;SDS011;42382;53.210;5.772;2023-03-11T06:58:26;3.30;;;0.40;;
56477;SDS011;42382;53.210;5.772;2023-03-11T07:00:53;4.63;;;0.40;;
56477;SDS011;42382;53.210;5.772;2023-03-11T07:03:18;6.97;;;0.50;;
56477;SDS011;42382;53.210;5.772;2023-03-11T07:05:44;7.47;;;0.60;;
56477;SDS011;42382;53.210;5.772;2023-03-11T07:08:10;2.30;;;0.30;;
56477;SDS011;42382;53.210;5.772;2023-03-11T07:10:36;2.95;;;0.22;;
56477;SDS011;42382;53.210;5.772;2023-03-11T07:13:02;5.72;;;0.30;;
56477;SDS011;42382;53.210;5.772;2023-03-11T07:15:28;5.40;;;0.40;;
56477;SDS011;42382;53.210;5.772;2023-03-11T07:17:54;1.77;;;0.28;;
56477;SDS011;42382;53.210;5.772;2023-03-11T07:20:20;2.35;;;0.30;;
56477;SDS011;42382;53.210;5.772;2023-03-11T07:22:46;4.93;;;0.40;;
56477;SDS011;42382;53.210;5.772;2023-03-11T07:25:12;5.38;;;0.30;;
56477;SDS011;42382;53.210;5.772;2023-03-11T07:27:38;4.93;;;0.60;;
56477;SDS011;42382;53.210;5.772;2023-03-11T07:30:05;2.75;;;0.40;;
56477;SDS011;42382;53.210;5.772;2023-03-11T07:32:31;4.88;;;0.52;;
56477;SDS011;42382;53.210;5.772;2023-03-11T07:34:57;8.35;;;0.82;;
56477;SDS011;42382;53.210;5.772;2023-03-11T07:37:23;5.50;;;0.40;;
56477;SDS011;42382;53.210;5.772;2023-03-11T07:39:49;7.47;;;0.57;;
56477;SDS011;42382;53.210;5.772;2023-03-11T07:42:15;4.65;;;0.47;;
56477;SDS011;42382;53.210;5.772;2023-03-11T07:44:41;3.95;;;0.35;;
56477;SDS011;42382;53.210;5.772;2023-03-11T07:47:07;5.55;;;0.60;;
56477;SDS011;42382;53.210;5.772;2023-03-11T07:49:33;6.28;;;0.50;;
56477;SDS011;42382;53.210;5.772;2023-03-11T07:51:58;6.38;;;0.63;;
56477;SDS011;42382;53.210;5.772;2023-03-11T07:54:24;1.17;;;0.22;;
56477;SDS011;42382;53.210;5.772;2023-03-11T07:56:49;7.13;;;0.43;;
56477;SDS011;42382;53.210;5.772;2023-03-11T07:59:15;6.65;;;1.38;;
56477;SDS011;42382;53.210;5.772;2023-03-11T08:01:41;3.75;;;0.35;;
56477;SDS011;42382;53.210;5.772;2023-03-11T08:04:11;5.82;;;0.57;;
56477;SDS011;42382;53.210;5.772;2023-03-11T08:06:40;8.45;;;0.90;;
56477;SDS011;42382;53.210;5.772;2023-03-11T08:09:08;1.98;;;1.13;;
56477;SDS011;42382;53.210;5.772;2023-03-11T08:11:34;4.97;;;0.55;;
56477;SDS011;42382;53.210;5.772;2023-03-11T08:14:00;2.50;;;0.20;;
56477;SDS011;42382;53.210;5.772;2023-03-11T08:16:26;4.10;;;0.40;;
56477;SDS011;42382;53.210;5.772;2023-03-11T08:18:52;3.05;;;0.40;;
56477;SDS011;42382;53.210;5.772;2023-03-11T08:21:22;3.80;;;0.30;;
56477;SDS011;42382;53.210;5.772;2023-03-11T08:23:49;7.00;;;0.40;;
56477;SDS011;42382;53.210;5.772;2023-03-11T08:26:16;2.92;;;0.30;;
56477;SDS011;42382;53.210;5.772;2023-03-11T08:28:44;4.13;;;0.30;;
56477;SDS011;42382;53.210;5.772;2023-03-11T08:31:20;9.00;;;1.50;;
56477;SDS011;42382;53.210;5.772;2023-03-11T08:33:48;6.20;;;0.43;;
56477;SDS011;42382;53.210;5.772;2023-03-11T08:36:15;5.30;;;0.65;;
56477;SDS011;42382;53.210;5.772;2023-03-11T08:38:41;2.72;;;0.60;;
56477;SDS011;42382;53.210;5.772;2023-03-11T08:41:07;6.57;;;0.47;;
56477;SDS011;42382;53.210;5.772;2023-03-11T08:43:33;3.30;;;0.70;;
56477;SDS011;42382;53.210;5.772;2023-03-11T08:45:59;10.90;;;0.70;;
56477;SDS011;42382;53.210;5.772;2023-03-11T08:48:26;3.45;;;0.40;;
56477;SDS011;42382;53.210;5.772;2023-03-11T08:50:52;4.60;;;0.60;;
56477;SDS011;42382;53.210;5.772;2023-03-11T08:53:18;2.70;;;0.40;;
56477;SDS011;42382;53.210;5.772;2023-03-11T08:55:43;4.60;;;0.70;;
56477;SDS011;42382;53.210;5.772;2023-03-11T08:58:09;8.13;;;0.82;;
56477;SDS011;42382;53.210;5.772;2023-03-11T09:00:35;1.58;;;0.35;;
56477;SDS011;42382;53.210;5.772;2023-03-11T09:03:00;4.10;;;0.50;;
56477;SDS011;42382;53.210;5.772;2023-03-11T09:05:26;7.60;;;1.23;;
56477;SDS011;42382;53.210;5.772;2023-03-11T09:07:52;7.93;;;0.57;;
56477;SDS011;42382;53.210;5.772;2023-03-11T09:10:18;3.45;;;0.50;;
56477;SDS011;42382;53.210;5.772;2023-03-11T09:12:43;9.85;;;0.73;;
56477;SDS011;42382;53.210;5.772;2023-03-11T09:15:09;4.93;;;0.70;;
56477;SDS011;42382;53.210;5.772;2023-03-11T09:17:35;5.95;;;0.68;;
56477;SDS011;42382;53.210;5.772;2023-03-11T09:20:01;2.92;;;0.40;;
56477;SDS011;42382;53.210;5.772;2023-03-11T09:22:27;4.03;;;0.63;;
56477;SDS011;42382;53.210;5.772;2023-03-11T09:24:53;4.80;;;1.23;;
56477;SDS011;42382;53.210;5.772;2023-03-11T09:27:19;4.72;;;0.57;;
56477;SDS011;42382;53.210;5.772;2023-03-11T09:29:44;5.03;;;0.50;;
56477;SDS011;42382;53.210;5.772;2023-03-11T09:32:11;5.93;;;1.38;;
56477;SDS011;42382;53.210;5.772;2023-03-11T09:34:41;3.25;;;0.55;;
56477;SDS011;42382;53.210;5.772;2023-03-11T09:37:06;7.95;;;1.98;;
56477;SDS011;42382;53.210;5.772;2023-03-11T09:39:32;5.30;;;0.50;;
56477;SDS011;42382;53.210;5.772;2023-03-11T09:42:01;3.47;;;0.45;;
56477;SDS011;42382;53.210;5.772;2023-03-11T09:52:42;3.83;;;0.60;;
56477;SDS011;42382;53.210;5.772;2023-03-11T10:00:47;2.35;;;0.38;;
56477;SDS011;42382;53.210;5.772;2023-03-11T10:03:16;4.97;;;0.38;;
56477;SDS011;42382;53.210;5.772;2023-03-11T10:05:51;3.83;;;0.35;;
56477;SDS011;42382;53.210;5.772;2023-03-11T10:08:28;3.35;;;0.38;;
56477;SDS011;42382;53.210;5.772;2023-03-11T10:11:16;4.13;;;0.20;;
56477;SDS011;42382;53.210;5.772;2023-03-11T10:13:48;2.50;;;0.52;;
56477;SDS011;42382;53.210;5.772;2023-03-11T10:16:23;4.32;;;0.50;;
56477;SDS011;42382;53.210;5.772;2023-03-11T10:18:56;5.07;;;0.30;;
56477;SDS011;42382;53.210;5.772;2023-03-11T10:21:30;2.83;;;0.50;;
56477;SDS011;42382;53.210;5.772;2023-03-11T10:24:14;2.60;;;0.27;;
56477;SDS011;42382;53.210;5.772;2023-03-11T10:26:43;2.90;;;0.22;;
56477;SDS011;42382;53.210;5.772;2023-03-11T10:29:24;2.88;;;0.20;;
56477;SDS011;42382;53.210;5.772;2023-03-11T10:34:37;3.22;;;0.30;;
56477;SDS011;42382;53.210;5.772;2023-03-11T10:37:39;3.50;;;0.70;;
56477;SDS011;42382;53.210;5.772;2023-03-11T10:40:03;8.25;;;0.40;;
56477;SDS011;42382;53.210;5.772;2023-03-11T10:42:30;2.28;;;0.20;;
56477;SDS011;42382;53.210;5.772;2023-03-11T10:44:57;1.75;;;0.20;;
56477;SDS011;42382;53.210;5.772;2023-03-11T10:47:23;2.00;;;0.17;;
56477;SDS011;42382;53.210;5.772;2023-03-11T10:49:50;3.05;;;0.40;;
56477;SDS011;42382;53.210;5.772;2023-03-11T10:52:19;7.00;;;0.40;;
56477;SDS011;42382;53.210;5.772;2023-03-11T10:54:46;5.15;;;0.30;;
56477;SDS011;42382;53.210;5.772;2023-03-11T14:45:44;2.63;;;0.10;;
56477;SDS011;42382;53.210;5.772;2023-03-11T14:50:58;3.78;;;0.10;;
56477;SDS011;42382;53.210;5.772;2023-03-11T14:53:30;3.92;;;0.20;;
56477;SDS011;42382;53.210;5.772;2023-03-11T14:56:11;8.98;;;0.73;;
56477;SDS011;42382;53.210;5.772;2023-03-11T14:58:43;2.33;;;0.25;;
56477;SDS011;42382;53.210;5.772;2023-03-11T15:01:15;2.28;;;0.10;;
56477;SDS011;42382;53.210;5.772;2023-03-11T15:06:52;4.38;;;0.10;;
56477;SDS011;42382;53.210;5.772;2023-03-11T16:06:18;3.33;;;0.20;;
56477;SDS011;42382;53.210;5.772;2023-03-11T16:08:43;2.72;;;0.43;;
56477;SDS011;42382;53.210;5.772;2023-03-11T16:11:11;1.92;;;0.10;;
56477;SDS011;42382;53.210;5.772;2023-03-11T16:13:36;3.28;;;0.15;;
56477;SDS011;42382;53.210;5.772;2023-03-11T16:16:02;4.30;;;0.57;;
56477;SDS011;42382;53.210;5.772;2023-03-11T16:18:28;5.35;;;0.40;;
56477;SDS011;42382;53.210;5.772;2023-03-11T16:20:53;3.97;;;0.22;;
56477;SDS011;42382;53.210;5.772;2023-03-11T16:23:21;2.85;;;0.10;;
56477;SDS011;42382;53.210;5.772;2023-03-11T16:25:49;4.60;;;0.20;;
56477;SDS011;42382;53.210;5.772;2023-03-11T16:28:16;4.65;;;0.10;;
56477;SDS011;42382;53.210;5.772;2023-03-11T16:30:42;4.50;;;0.30;;
56477;SDS011;42382;53.210;5.772;2023-03-11T16:33:07;4.80;;;0.40;;
56477;SDS011;42382;53.210;5.772;2023-03-11T17:36:39;9.00;;;1.60;;
56477;SDS011;42382;53.210;5.772;2023-03-11T19:23:48;6.07;;;2.10;;
56477;SDS011;42382;53.210;5.772;2023-03-11T19:26:19;9.20;;;2.25;;
56477;SDS011;42382;53.210;5.772;2023-03-11T19:28:45;7.10;;;2.20;;
56477;SDS011;42382;53.210;5.772;2023-03-11T19:38:28;7.40;;;1.40;;
56477;SDS011;42382;53.210;5.772;2023-03-11T19:41:02;4.15;;;1.20;;
56477;SDS011;42382;53.210;5.772;2023-03-11T19:43:30;8.03;;;1.47;;
56477;SDS011;42382;53.210;5.772;2023-03-11T19:45:56;8.70;;;1.60;;
56477;SDS011;42382;53.210;5.772;2023-03-11T19:48:22;8.82;;;1.00;;
56477;SDS011;42382;53.210;5.772;2023-03-11T19:50:48;5.80;;;1.45;;
56477;SDS011;42382;53.210;5.772;2023-03-11T19:53:15;6.85;;;1.55;;
56477;SDS011;42382;53.210;5.772;2023-03-11T19:55:45;4.90;;;1.20;;
56477;SDS011;42382;53.210;5.772;2023-03-11T19:58:13;12.60;;;5.28;;
56477;SDS011;42382;53.210;5.772;2023-03-11T20:00:39;8.88;;;3.22;;
56477;SDS011;42382;53.210;5.772;2023-03-11T20:03:06;5.97;;;1.85;;
56477;SDS011;42382;53.210;5.772;2023-03-11T20:05:33;8.52;;;1.58;;
56477;SDS011;42382;53.210;5.772;2023-03-11T20:08:00;2.65;;;1.10;;
56477;SDS011;42382;53.210;5.772;2023-03-11T20:10:25;9.65;;;3.15;;
56477;SDS011;42382;53.210;5.772;2023-03-11T20:12:51;6.80;;;2.15;;
56477;SDS011;42382;53.210;5.772;2023-03-11T20:15:17;9.88;;;2.33;;
56477;SDS011;42382;53.210;5.772;2023-03-11T20:17:42;5.97;;;1.80;;
56477;SDS011;42382;53.210;5.772;2023-03-11T20:20:08;6.53;;;1.95;;
56477;SDS011;42382;53.210;5.772;2023-03-11T20:22:34;4.30;;;1.92;;
56477;SDS011;42382;53.210;5.772;2023-03-11T20:25:00;8.30;;;1.70;;
56477;SDS011;42382;53.210;5.772;2023-03-11T20:27:25;3.10;;;1.23;;
56477;SDS011;42382;53.210;5.772;2023-03-11T20:29:51;2.92;;;1.10;;
56477;SDS011;42382;53.210;5.772;2023-03-11T20:32:17;4.43;;;0.80;;
56477;SDS011;42382;53.210;5.772;2023-03-11T20:34:42;3.28;;;0.90;;
56477;SDS011;42382;53.210;5.772;2023-03-11T20:37:08;9.15;;;1.70;;
56477;SDS011;42382;53.210;5.772;2023-03-11T20:39:34;3.97;;;1.15;;
56477;SDS011;42382;53.210;5.772;2023-03-11T20:41:59;5.60;;;1.20;;
56477;SDS011;42382;53.210;5.772;2023-03-11T20:44:25;4.90;;;0.80;;
56477;SDS011;42382;53.210;5.772;2023-03-11T20:46:51;7.85;;;1.50;;
56477;SDS011;42382;53.210;5.772;2023-03-11T20:49:18;11.32;;;1.70;;
56477;SDS011;42382;53.210;5.772;2023-03-11T20:51:44;4.30;;;1.25;;
56477;SDS011;42382;53.210;5.772;2023-03-11T20:54:12;2.53;;;0.98;;
56477;SDS011;42382;53.210;5.772;2023-03-11T20:56:38;3.35;;;1.10;;
56477;SDS011;42382;53.210;5.772;2023-03-11T20:59:04;3.25;;;0.80;;
56477;SDS011;42382;53.210;5.772;2023-03-11T21:01:31;4.43;;;0.80;;
56477;SDS011;42382;53.210;5.772;2023-03-11T21:03:58;7.25;;;1.15;;
56477;SDS011;42382;53.210;5.772;2023-03-11T21:06:27;6.43;;;1.15;;
56477;SDS011;42382;53.210;5.772;2023-03-11T21:08:57;6.18;;;1.50;;
56477;SDS011;42382;53.210;5.772;2023-03-11T21:11:24;5.93;;;1.13;;
56477;SDS011;42382;53.210;5.772;2023-03-11T21:13:50;5.40;;;0.93;;
56477;SDS011;42382;53.210;5.772;2023-03-11T21:16:16;5.05;;;1.50;;
56477;SDS011;42382;53.210;5.772;2023-03-11T21:18:43;3.30;;;0.93;;
56477;SDS011;42382;53.210;5.772;2023-03-11T21:21:09;6.38;;;1.10;;
56477;SDS011;42382;53.210;5.772;2023-03-11T21:23:36;2.92;;;1.10;;
56477;SDS011;42382;53.210;5.772;2023-03-11T21:26:04;7.32;;;1.75;;
56477;SDS011;42382;53.210;5.772;2023-03-11T21:28:30;6.50;;;1.80;;
56477;SDS011;42382;53.210;5.772;2023-03-11T21:30:59;6.10;;;1.30;;
56477;SDS011;42382;53.210;5.772;2023-03-11T21:33:25;4.47;;;1.10;;
56477;SDS011;42382;53.210;5.772;2023-03-11T21:35:53;5.20;;;1.13;;
56477;SDS011;42382;53.210;5.772;2023-03-11T21:38:19;7.68;;;1.02;;
56477;SDS011;42382;53.210;5.772;2023-03-11T21:40:46;5.13;;;0.90;;
56477;SDS011;42382;53.210;5.772;2023-03-11T21:43:11;5.57;;;1.20;;
56477;SDS011;42382;53.210;5.772;2023-03-11T21:45:37;6.00;;;1.20;;
56477;SDS011;42382;53.210;5.772;2023-03-11T21:48:03;4.15;;;1.00;;
56477;SDS011;42382;53.210;5.772;2023-03-11T21:50:33;4.30;;;0.90;;
56477;SDS011;42382;53.210;5.772;2023-03-11T21:52:59;5.15;;;0.90;;
56477;SDS011;42382;53.210;5.772;2023-03-11T21:55:24;2.97;;;1.00;;
56477;SDS011;42382;53.210;5.772;2023-03-11T21:57:50;4.93;;;1.30;;
56477;SDS011;42382;53.210;5.772;2023-03-11T22:00:16;5.20;;;1.20;;
56477;SDS011;42382;53.210;5.772;2023-03-11T22:02:44;6.43;;;1.33;;
56477;SDS011;42382;53.210;5.772;2023-03-11T22:05:09;6.03;;;2.55;;
56477;SDS011;42382;53.210;5.772;2023-03-11T22:07:36;3.47;;;1.40;;
56477;SDS011;42382;53.210;5.772;2023-03-11T22:10:02;5.65;;;1.45;;
56477;SDS011;42382;53.210;5.772;2023-03-11T22:12:28;4.38;;;1.42;;
56477;SDS011;42382;53.210;5.772;2023-03-11T22:14:54;5.65;;;1.30;;
56477;SDS011;42382;53.210;5.772;2023-03-11T22:17:19;6.20;;;1.52;;
56477;SDS011;42382;53.210;5.772;2023-03-11T22:19:45;6.60;;;1.63;;
56477;SDS011;42382;53.210;5.772;2023-03-11T22:22:11;7.90;;;1.55;;
56477;SDS011;42382;53.210;5.772;2023-03-11T22:24:36;7.13;;;1.60;;
56477;SDS011;42382;53.210;5.772;2023-03-11T22:27:02;6.47;;;2.22;;
56477;SDS011;42382;53.210;5.772;2023-03-11T22:29:27;6.82;;;1.65;;
56477;SDS011;42382;53.210;5.772;2023-03-11T22:31:53;8.20;;;1.58;;
56477;SDS011;42382;53.210;5.772;2023-03-11T22:34:19;6.95;;;1.60;;
56477;SDS011;42382;53.210;5.772;2023-03-11T22:36:44;6.88;;;1.40;;
56477;SDS011;42382;53.210;5.772;2023-03-11T22:39:10;9.68;;;1.77;;
56477;SDS011;42382;53.210;5.772;2023-03-11T22:41:35;8.98;;;1.85;;
56477;SDS011;42382;53.210;5.772;2023-03-11T22:44:01;7.13;;;1.85;;
56477;SDS011;42382;53.210;5.772;2023-03-11T22:46:27;5.05;;;1.48;;
56477;SDS011;42382;53.210;5.772;2023-03-11T22:48:53;4.45;;;1.55;;
56477;SDS011;42382;53.210;5.772;2023-03-11T23:01:03;5.45;;;1.95;;
56477;SDS011;42382;53.210;5.772;2023-03-11T23:03:29;4.80;;;1.63;;
56477;SDS011;42382;53.210;5.772;2023-03-11T23:05:57;6.80;;;2.80;;
56477;SDS011;42382;53.210;5.772;2023-03-11T23:08:23;10.73;;;2.83;;
56477;SDS011;42382;53.210;5.772;2023-03-11T23:10:48;8.18;;;2.50;;
56477;SDS011;42382;53.210;5.772;2023-03-11T23:13:14;8.45;;;2.65;;
56477;SDS011;42382;53.210;5.772;2023-03-11T23:15:41;6.80;;;2.33;;
56477;SDS011;42382;53.210;5.772;2023-03-11T23:18:08;8.10;;;2.65;;
56477;SDS011;42382;53.210;5.772;2023-03-11T23:20:35;6.43;;;2.40;;
56477;SDS011;42382;53.210;5.772;2023-03-11T23:23:02;4.50;;;2.20;;
56477;SDS011;42382;53.210;5.772;2023-03-11T23:25:28;5.25;;;2.38;;
56477;SDS011;42382;53.210;5.772;2023-03-11T23:27:54;7.68;;;2.38;;
56477;SDS011;42382;53.210;5.772;2023-03-11T23:30:20;6.47;;;2.22;;
56477;SDS011;42382;53.210;5.772;2023-03-11T23:32:45;10.57;;;2.38;;
56477;SDS011;42382;53.210;5.772;2023-03-11T23:35:11;6.00;;;2.05;;
56477;SDS011;42382;53.210;5.772;2023-03-11T23:37:37;4.40;;;1.90;;
56477;SDS011;42382;53.210;5.772;2023-03-11T23:40:03;6.45;;;2.20;;
56477;SDS011;42382;53.210;5.772;2023-03-11T23:42:32;5.25;;;2.30;;
56477;SDS011;42382;53.210;5.772;2023-03-11T23:44:59;5.88;;;1.90;;
56477;SDS011;42382;53.210;5.772;2023-03-11T23:47:25;9.07;;;2.25;;
56477;SDS011;42382;53.210;5.772;2023-03-11T23:49:51;3.85;;;2.30;;
56477;SDS011;42382;53.210;5.772;2023-03-11T23:52:16;9.27;;;3.60;;
56477;SDS011;42382;53.210;5.772;2023-03-11T23:54:42;7.03;;;2.53;;
56477;SDS011;42382;53.210;5.772;2023-03-11T23:57:07;7.82;;;2.40;;
56477;SDS011;42382;53.210;5.772;2023-03-11T23:59:33;7.07;;;2.60;;
